sensor_id;sensor_type;location;lat;lon;timestamp;temperature;humidity
45044;DHT22;30784;48.490;9.688;2022-12-20T00:01:15;8.90;61.00
45044;DHT22;30784;48.490;9.688;2022-12-20T00:03:49;8.90;61.20
45044;DHT22;30784;48.490;9.688;2022-12-20T00:06:15;8.90;61.20
45044;DHT22;30784;48.490;9.688;2022-12-20T00:08:41;8.90;61.30
45044;DHT22;30784;48.490;9.688;2022-12-20T00:11:08;8.90;61.40
45044;DHT22;30784;48.490;9.688;2022-12-20T00:13:35;8.90;61.50
45044;DHT22;30784;48.490;9.688;2022-12-20T00:16:07;8.90;61.60
45044;DHT22;30784;48.490;9.688;2022-12-20T00:18:34;9.00;61.70
45044;DHT22;30784;48.490;9.688;2022-12-20T00:21:01;9.00;61.60
45044;DHT22;30784;48.490;9.688;2022-12-20T00:23:27;9.10;61.60
45044;DHT22;30784;48.490;9.688;2022-12-20T00:26:16;9.10;61.50
45044;DHT22;30784;48.490;9.688;2022-12-20T00:28:42;9.10;61.50
45044;DHT22;30784;48.490;9.688;2022-12-20T00:31:10;9.20;61.30
45044;DHT22;30784;48.490;9.688;2022-12-20T00:33:37;9.10;61.10
45044;DHT22;30784;48.490;9.688;2022-12-20T00:36:05;9.20;61.00
45044;DHT22;30784;48.490;9.688;2022-12-20T00:38:31;9.20;60.80
45044;DHT22;30784;48.490;9.688;2022-12-20T00:41:09;9.30;60.70
45044;DHT22;30784;48.490;9.688;2022-12-20T00:43:35;9.30;60.70
45044;DHT22;30784;48.490;9.688;2022-12-20T00:46:01;9.20;60.50
45044;DHT22;30784;48.490;9.688;2022-12-20T00:48:33;9.20;60.30
45044;DHT22;30784;48.490;9.688;2022-12-20T00:51:08;9.20;60.30
45044;DHT22;30784;48.490;9.688;2022-12-20T00:53:42;9.20;60.20
45044;DHT22;30784;48.490;9.688;2022-12-20T00:56:08;9.10;60.10
45044;DHT22;30784;48.490;9.688;2022-12-20T00:58:36;9.10;60.10
45044;DHT22;30784;48.490;9.688;2022-12-20T01:01:04;9.00;59.90
45044;DHT22;30784;48.490;9.688;2022-12-20T01:03:33;9.00;59.90
45044;DHT22;30784;48.490;9.688;2022-12-20T01:06:10;8.90;59.90
45044;DHT22;30784;48.490;9.688;2022-12-20T01:08:38;8.80;59.90
45044;DHT22;30784;48.490;9.688;2022-12-20T01:11:14;8.80;60.00
45044;DHT22;30784;48.490;9.688;2022-12-20T01:13:43;8.80;60.10
45044;DHT22;30784;48.490;9.688;2022-12-20T01:18:37;8.70;60.30
45044;DHT22;30784;48.490;9.688;2022-12-20T01:21:08;8.60;60.30
45044;DHT22;30784;48.490;9.688;2022-12-20T01:23:35;8.60;60.40
45044;DHT22;30784;48.490;9.688;2022-12-20T01:26:05;8.60;60.50
45044;DHT22;30784;48.490;9.688;2022-12-20T01:28:34;8.50;60.50
45044;DHT22;30784;48.490;9.688;2022-12-20T01:31:00;8.50;60.50
45044;DHT22;30784;48.490;9.688;2022-12-20T01:33:25;8.50;60.60
45044;DHT22;30784;48.490;9.688;2022-12-20T01:36:00;8.50;60.60
45044;DHT22;30784;48.490;9.688;2022-12-20T01:38:27;8.50;60.50
45044;DHT22;30784;48.490;9.688;2022-12-20T01:40:53;8.50;60.50
45044;DHT22;30784;48.490;9.688;2022-12-20T01:43:22;8.50;60.60
45044;DHT22;30784;48.490;9.688;2022-12-20T01:45:51;8.50;60.60
45044;DHT22;30784;48.490;9.688;2022-12-20T01:48:24;8.40;60.50
45044;DHT22;30784;48.490;9.688;2022-12-20T01:50:51;8.40;60.60
45044;DHT22;30784;48.490;9.688;2022-12-20T01:53:18;8.40;60.60
45044;DHT22;30784;48.490;9.688;2022-12-20T01:55:45;8.40;60.60
45044;DHT22;30784;48.490;9.688;2022-12-20T01:58:13;8.40;60.60
45044;DHT22;30784;48.490;9.688;2022-12-20T02:00:40;8.40;60.60
45044;DHT22;30784;48.490;9.688;2022-12-20T02:03:10;8.40;60.60
45044;DHT22;30784;48.490;9.688;2022-12-20T02:05:42;8.40;60.50
45044;DHT22;30784;48.490;9.688;2022-12-20T02:08:10;8.30;60.50
45044;DHT22;30784;48.490;9.688;2022-12-20T02:13:59;8.30;60.60
45044;DHT22;30784;48.490;9.688;2022-12-20T02:16:39;8.30;60.60
45044;DHT22;30784;48.490;9.688;2022-12-20T02:25:13;8.30;60.60
45044;DHT22;30784;48.490;9.688;2022-12-20T02:28:02;8.20;60.60
45044;DHT22;30784;48.490;9.688;2022-12-20T02:30:33;8.30;60.60
45044;DHT22;30784;48.490;9.688;2022-12-20T02:33:02;8.30;60.60
45044;DHT22;30784;48.490;9.688;2022-12-20T02:35:36;8.30;60.60
45044;DHT22;30784;48.490;9.688;2022-12-20T02:38:29;8.40;60.60
45044;DHT22;30784;48.490;9.688;2022-12-20T02:41:11;8.20;60.50
45044;DHT22;30784;48.490;9.688;2022-12-20T02:43:41;8.20;60.50
45044;DHT22;30784;48.490;9.688;2022-12-20T02:46:27;8.20;60.40
45044;DHT22;30784;48.490;9.688;2022-12-20T02:48:57;8.20;60.40
45044;DHT22;30784;48.490;9.688;2022-12-20T02:51:32;8.20;60.50
45044;DHT22;30784;48.490;9.688;2022-12-20T02:53:59;8.20;60.50
45044;DHT22;30784;48.490;9.688;2022-12-20T02:56:46;8.10;60.50
45044;DHT22;30784;48.490;9.688;2022-12-20T02:59:27;8.20;60.50
45044;DHT22;30784;48.490;9.688;2022-12-20T03:01:55;8.10;60.50
45044;DHT22;30784;48.490;9.688;2022-12-20T03:04:26;8.10;60.50
45044;DHT22;30784;48.490;9.688;2022-12-20T03:07:00;8.10;60.50
45044;DHT22;30784;48.490;9.688;2022-12-20T03:09:27;8.00;60.50
45044;DHT22;30784;48.490;9.688;2022-12-20T03:11:54;8.10;60.60
45044;DHT22;30784;48.490;9.688;2022-12-20T03:14:19;8.10;60.50
45044;DHT22;30784;48.490;9.688;2022-12-20T03:16:45;8.10;60.50
45044;DHT22;30784;48.490;9.688;2022-12-20T03:19:11;8.10;60.50
45044;DHT22;30784;48.490;9.688;2022-12-20T03:21:37;8.00;60.40
45044;DHT22;30784;48.490;9.688;2022-12-20T03:24:02;8.00;60.40
45044;DHT22;30784;48.490;9.688;2022-12-20T03:26:28;8.00;60.40
45044;DHT22;30784;48.490;9.688;2022-12-20T03:28:53;7.90;60.30
45044;DHT22;30784;48.490;9.688;2022-12-20T03:31:19;7.90;60.40
45044;DHT22;30784;48.490;9.688;2022-12-20T03:33:45;7.90;60.50
45044;DHT22;30784;48.490;9.688;2022-12-20T03:36:11;7.90;60.60
45044;DHT22;30784;48.490;9.688;2022-12-20T03:38:36;7.90;61.20
45044;DHT22;30784;48.490;9.688;2022-12-20T03:41:02;7.90;60.80
45044;DHT22;30784;48.490;9.688;2022-12-20T03:43:30;7.80;60.80
45044;DHT22;30784;48.490;9.688;2022-12-20T03:45:56;7.80;60.80
45044;DHT22;30784;48.490;9.688;2022-12-20T03:48:22;7.80;60.90
45044;DHT22;30784;48.490;9.688;2022-12-20T03:50:50;7.80;61.00
45044;DHT22;30784;48.490;9.688;2022-12-20T03:53:16;7.80;61.00
45044;DHT22;30784;48.490;9.688;2022-12-20T03:55:41;7.90;61.20
45044;DHT22;30784;48.490;9.688;2022-12-20T03:58:09;7.80;61.20
45044;DHT22;30784;48.490;9.688;2022-12-20T04:00:40;7.90;61.20
45044;DHT22;30784;48.490;9.688;2022-12-20T04:03:05;7.90;61.30
45044;DHT22;30784;48.490;9.688;2022-12-20T04:05:31;7.90;61.30
45044;DHT22;30784;48.490;9.688;2022-12-20T04:07:56;7.90;61.20
45044;DHT22;30784;48.490;9.688;2022-12-20T04:10:22;8.00;61.30
45044;DHT22;30784;48.490;9.688;2022-12-20T04:12:50;8.00;61.40
45044;DHT22;30784;48.490;9.688;2022-12-20T04:15:16;8.00;61.40
45044;DHT22;30784;48.490;9.688;2022-12-20T04:17:42;8.10;61.40
45044;DHT22;30784;48.490;9.688;2022-12-20T04:20:09;8.10;61.30
45044;DHT22;30784;48.490;9.688;2022-12-20T04:22:50;8.10;61.40
45044;DHT22;30784;48.490;9.688;2022-12-20T04:25:17;8.20;61.30
45044;DHT22;30784;48.490;9.688;2022-12-20T04:27:44;8.20;61.30
45044;DHT22;30784;48.490;9.688;2022-12-20T04:30:10;8.20;61.20
45044;DHT22;30784;48.490;9.688;2022-12-20T04:32:36;8.30;61.20
45044;DHT22;30784;48.490;9.688;2022-12-20T04:35:02;8.30;61.10
45044;DHT22;30784;48.490;9.688;2022-12-20T04:37:30;8.30;61.10
45044;DHT22;30784;48.490;9.688;2022-12-20T04:39:56;8.30;61.00
45044;DHT22;30784;48.490;9.688;2022-12-20T04:42:23;8.30;61.00
45044;DHT22;30784;48.490;9.688;2022-12-20T04:44:49;8.40;60.90
45044;DHT22;30784;48.490;9.688;2022-12-20T04:47:14;8.30;60.80
45044;DHT22;30784;48.490;9.688;2022-12-20T04:49:40;8.40;60.80
45044;DHT22;30784;48.490;9.688;2022-12-20T04:52:05;8.40;60.70
45044;DHT22;30784;48.490;9.688;2022-12-20T04:54:49;8.40;60.60
45044;DHT22;30784;48.490;9.688;2022-12-20T04:57:15;8.40;60.60
45044;DHT22;30784;48.490;9.688;2022-12-20T04:59:41;8.40;60.60
45044;DHT22;30784;48.490;9.688;2022-12-20T05:02:06;8.30;60.60
45044;DHT22;30784;48.490;9.688;2022-12-20T05:04:32;8.30;60.50
45044;DHT22;30784;48.490;9.688;2022-12-20T05:06:57;8.30;60.50
45044;DHT22;30784;48.490;9.688;2022-12-20T05:09:23;8.30;60.50
45044;DHT22;30784;48.490;9.688;2022-12-20T05:11:49;8.30;60.50
45044;DHT22;30784;48.490;9.688;2022-12-20T05:14:14;8.30;60.60
45044;DHT22;30784;48.490;9.688;2022-12-20T05:16:40;8.30;60.50
45044;DHT22;30784;48.490;9.688;2022-12-20T05:19:05;8.30;60.60
45044;DHT22;30784;48.490;9.688;2022-12-20T05:21:31;8.30;60.60
45044;DHT22;30784;48.490;9.688;2022-12-20T05:24:15;8.30;60.60
45044;DHT22;30784;48.490;9.688;2022-12-20T05:27:00;8.30;60.70
45044;DHT22;30784;48.490;9.688;2022-12-20T05:29:25;8.20;60.60
45044;DHT22;30784;48.490;9.688;2022-12-20T05:31:51;8.20;60.60
45044;DHT22;30784;48.490;9.688;2022-12-20T05:34:16;8.20;60.60
45044;DHT22;30784;48.490;9.688;2022-12-20T05:36:42;8.20;60.70
45044;DHT22;30784;48.490;9.688;2022-12-20T05:39:08;8.20;60.70
45044;DHT22;30784;48.490;9.688;2022-12-20T05:41:36;8.20;60.70
45044;DHT22;30784;48.490;9.688;2022-12-20T05:44:01;8.20;60.70
45044;DHT22;30784;48.490;9.688;2022-12-20T05:46:27;8.20;60.60
45044;DHT22;30784;48.490;9.688;2022-12-20T05:48:52;8.20;60.70
45044;DHT22;30784;48.490;9.688;2022-12-20T05:51:18;8.20;60.60
45044;DHT22;30784;48.490;9.688;2022-12-20T05:53:43;8.20;60.60
45044;DHT22;30784;48.490;9.688;2022-12-20T05:56:10;8.20;60.60
45044;DHT22;30784;48.490;9.688;2022-12-20T05:58:35;8.20;60.60
45044;DHT22;30784;48.490;9.688;2022-12-20T06:01:03;8.20;60.60
45044;DHT22;30784;48.490;9.688;2022-12-20T06:03:29;8.10;60.60
45044;DHT22;30784;48.490;9.688;2022-12-20T06:05:55;8.10;60.60
45044;DHT22;30784;48.490;9.688;2022-12-20T06:08:21;8.10;60.60
45044;DHT22;30784;48.490;9.688;2022-12-20T06:10:48;8.20;60.70
45044;DHT22;30784;48.490;9.688;2022-12-20T06:13:14;8.20;60.70
45044;DHT22;30784;48.490;9.688;2022-12-20T06:15:40;8.10;60.60
45044;DHT22;30784;48.490;9.688;2022-12-20T06:18:06;8.10;60.60
45044;DHT22;30784;48.490;9.688;2022-12-20T06:20:33;8.20;60.70
45044;DHT22;30784;48.490;9.688;2022-12-20T06:22:58;8.10;60.60
45044;DHT22;30784;48.490;9.688;2022-12-20T06:25:24;8.10;60.70
45044;DHT22;30784;48.490;9.688;2022-12-20T06:27:50;8.10;60.70
45044;DHT22;30784;48.490;9.688;2022-12-20T06:30:16;8.10;60.70
45044;DHT22;30784;48.490;9.688;2022-12-20T06:32:42;8.10;60.70
45044;DHT22;30784;48.490;9.688;2022-12-20T06:35:08;8.10;60.70
45044;DHT22;30784;48.490;9.688;2022-12-20T06:37:34;8.10;60.70
45044;DHT22;30784;48.490;9.688;2022-12-20T06:40:01;8.10;60.70
45044;DHT22;30784;48.490;9.688;2022-12-20T06:42:26;8.10;60.70
45044;DHT22;30784;48.490;9.688;2022-12-20T06:44:53;8.10;60.70
45044;DHT22;30784;48.490;9.688;2022-12-20T06:47:19;8.10;60.70
45044;DHT22;30784;48.490;9.688;2022-12-20T06:49:44;8.20;60.80
45044;DHT22;30784;48.490;9.688;2022-12-20T06:52:10;8.20;60.80
45044;DHT22;30784;48.490;9.688;2022-12-20T06:54:35;8.20;60.80
45044;DHT22;30784;48.490;9.688;2022-12-20T06:57:01;8.20;60.80
45044;DHT22;30784;48.490;9.688;2022-12-20T06:59:26;8.20;60.80
45044;DHT22;30784;48.490;9.688;2022-12-20T07:01:52;8.20;60.80
45044;DHT22;30784;48.490;9.688;2022-12-20T07:04:18;8.20;60.80
45044;DHT22;30784;48.490;9.688;2022-12-20T07:06:43;8.20;60.80
45044;DHT22;30784;48.490;9.688;2022-12-20T07:09:09;8.30;60.90
45044;DHT22;30784;48.490;9.688;2022-12-20T07:11:36;8.30;60.90
45044;DHT22;30784;48.490;9.688;2022-12-20T07:14:02;8.20;60.80
45044;DHT22;30784;48.490;9.688;2022-12-20T07:16:28;8.30;60.90
45044;DHT22;30784;48.490;9.688;2022-12-20T07:18:53;8.40;61.00
45044;DHT22;30784;48.490;9.688;2022-12-20T07:21:20;8.40;60.90
45044;DHT22;30784;48.490;9.688;2022-12-20T07:23:46;8.40;60.90
45044;DHT22;30784;48.490;9.688;2022-12-20T07:26:13;8.40;60.90
45044;DHT22;30784;48.490;9.688;2022-12-20T07:28:40;8.50;60.90
45044;DHT22;30784;48.490;9.688;2022-12-20T07:31:05;8.50;60.80
45044;DHT22;30784;48.490;9.688;2022-12-20T07:33:31;8.50;60.80
45044;DHT22;30784;48.490;9.688;2022-12-20T07:36:09;8.50;60.70
45044;DHT22;30784;48.490;9.688;2022-12-20T07:38:35;8.60;60.70
45044;DHT22;30784;48.490;9.688;2022-12-20T07:41:06;8.60;60.70
45044;DHT22;30784;48.490;9.688;2022-12-20T07:43:32;8.60;60.60
45044;DHT22;30784;48.490;9.688;2022-12-20T07:45:58;8.60;60.60
45044;DHT22;30784;48.490;9.688;2022-12-20T07:48:24;8.60;60.50
45044;DHT22;30784;48.490;9.688;2022-12-20T07:50:56;8.60;60.50
45044;DHT22;30784;48.490;9.688;2022-12-20T07:53:24;8.60;60.40
45044;DHT22;30784;48.490;9.688;2022-12-20T07:55:50;8.60;60.40
45044;DHT22;30784;48.490;9.688;2022-12-20T07:58:17;8.70;60.50
45044;DHT22;30784;48.490;9.688;2022-12-20T08:00:43;8.70;60.40
45044;DHT22;30784;48.490;9.688;2022-12-20T08:03:11;8.70;60.40
45044;DHT22;30784;48.490;9.688;2022-12-20T08:05:40;8.70;60.30
45044;DHT22;30784;48.490;9.688;2022-12-20T08:08:07;8.70;60.30
45044;DHT22;30784;48.490;9.688;2022-12-20T08:10:35;8.80;60.30
45044;DHT22;30784;48.490;9.688;2022-12-20T08:13:02;8.80;60.30
45044;DHT22;30784;48.490;9.688;2022-12-20T08:15:28;8.80;60.20
45044;DHT22;30784;48.490;9.688;2022-12-20T08:17:54;8.80;60.20
45044;DHT22;30784;48.490;9.688;2022-12-20T08:20:20;8.90;60.10
45044;DHT22;30784;48.490;9.688;2022-12-20T08:22:45;8.90;60.20
45044;DHT22;30784;48.490;9.688;2022-12-20T08:25:11;8.90;60.10
45044;DHT22;30784;48.490;9.688;2022-12-20T08:27:37;8.90;60.00
45044;DHT22;30784;48.490;9.688;2022-12-20T08:30:03;8.90;60.00
45044;DHT22;30784;48.490;9.688;2022-12-20T08:32:29;9.00;60.00
45044;DHT22;30784;48.490;9.688;2022-12-20T08:34:54;9.00;60.00
45044;DHT22;30784;48.490;9.688;2022-12-20T08:37:20;9.00;60.00
45044;DHT22;30784;48.490;9.688;2022-12-20T08:39:45;9.00;59.90
45044;DHT22;30784;48.490;9.688;2022-12-20T08:42:11;9.10;59.80
45044;DHT22;30784;48.490;9.688;2022-12-20T08:44:37;9.20;59.80
45044;DHT22;30784;48.490;9.688;2022-12-20T08:47:03;9.10;59.80
45044;DHT22;30784;48.490;9.688;2022-12-20T08:49:28;9.20;59.70
45044;DHT22;30784;48.490;9.688;2022-12-20T08:51:54;9.20;59.70
45044;DHT22;30784;48.490;9.688;2022-12-20T08:54:20;9.20;59.70
45044;DHT22;30784;48.490;9.688;2022-12-20T08:56:45;9.20;59.50
45044;DHT22;30784;48.490;9.688;2022-12-20T08:59:11;9.20;59.40
45044;DHT22;30784;48.490;9.688;2022-12-20T09:01:36;9.20;59.40
45044;DHT22;30784;48.490;9.688;2022-12-20T09:04:03;9.20;59.50
45044;DHT22;30784;48.490;9.688;2022-12-20T09:06:28;9.30;59.50
45044;DHT22;30784;48.490;9.688;2022-12-20T09:08:54;9.20;59.10
45044;DHT22;30784;48.490;9.688;2022-12-20T09:11:25;9.30;59.20
45044;DHT22;30784;48.490;9.688;2022-12-20T09:13:53;9.30;59.20
45044;DHT22;30784;48.490;9.688;2022-12-20T09:16:21;9.30;59.10
45044;DHT22;30784;48.490;9.688;2022-12-20T09:18:49;9.30;59.00
45044;DHT22;30784;48.490;9.688;2022-12-20T09:21:14;9.30;58.90
45044;DHT22;30784;48.490;9.688;2022-12-20T09:23:40;9.30;58.80
45044;DHT22;30784;48.490;9.688;2022-12-20T09:26:14;9.20;58.70
45044;DHT22;30784;48.490;9.688;2022-12-20T09:28:40;9.20;58.80
45044;DHT22;30784;48.490;9.688;2022-12-20T09:31:08;9.20;58.70
45044;DHT22;30784;48.490;9.688;2022-12-20T09:33:35;9.20;58.70
45044;DHT22;30784;48.490;9.688;2022-12-20T09:36:01;9.20;58.70
45044;DHT22;30784;48.490;9.688;2022-12-20T09:38:28;9.20;58.70
45044;DHT22;30784;48.490;9.688;2022-12-20T09:40:57;9.20;58.70
45044;DHT22;30784;48.490;9.688;2022-12-20T09:43:23;9.20;58.60
45044;DHT22;30784;48.490;9.688;2022-12-20T09:45:55;9.20;58.70
45044;DHT22;30784;48.490;9.688;2022-12-20T09:51:05;9.20;58.60
45044;DHT22;30784;48.490;9.688;2022-12-20T09:53:45;9.20;58.70
45044;DHT22;30784;48.490;9.688;2022-12-20T09:56:37;9.20;58.70
45044;DHT22;30784;48.490;9.688;2022-12-20T09:59:17;9.20;58.90
45044;DHT22;30784;48.490;9.688;2022-12-20T10:01:46;9.20;59.10
45044;DHT22;30784;48.490;9.688;2022-12-20T10:04:24;9.20;58.80
45044;DHT22;30784;48.490;9.688;2022-12-20T10:07:00;9.30;59.10
45044;DHT22;30784;48.490;9.688;2022-12-20T10:12:23;9.40;59.10
45044;DHT22;30784;48.490;9.688;2022-12-20T10:20:44;9.70;58.80
45044;DHT22;30784;48.490;9.688;2022-12-20T10:23:27;9.80;58.70
45044;DHT22;30784;48.490;9.688;2022-12-20T10:25:56;9.90;58.40
45044;DHT22;30784;48.490;9.688;2022-12-20T10:28:28;10.00;58.20
45044;DHT22;30784;48.490;9.688;2022-12-20T10:30:58;10.10;58.20
45044;DHT22;30784;48.490;9.688;2022-12-20T10:33:27;10.10;58.00
45044;DHT22;30784;48.490;9.688;2022-12-20T10:35:53;10.20;58.10
45044;DHT22;30784;48.490;9.688;2022-12-20T10:38:19;10.30;57.90
45044;DHT22;30784;48.490;9.688;2022-12-20T10:40:48;10.30;57.70
45044;DHT22;30784;48.490;9.688;2022-12-20T10:43:23;10.30;57.40
45044;DHT22;30784;48.490;9.688;2022-12-20T10:46:02;10.40;57.30
45044;DHT22;30784;48.490;9.688;2022-12-20T10:48:34;10.40;57.20
45044;DHT22;30784;48.490;9.688;2022-12-20T10:51:03;10.40;57.00
45044;DHT22;30784;48.490;9.688;2022-12-20T10:53:30;10.40;57.00
45044;DHT22;30784;48.490;9.688;2022-12-20T10:56:22;10.40;56.90
45044;DHT22;30784;48.490;9.688;2022-12-20T10:58:53;10.40;57.20
45044;DHT22;30784;48.490;9.688;2022-12-20T11:01:21;10.40;56.70
45044;DHT22;30784;48.490;9.688;2022-12-20T11:06:41;10.30;56.50
45044;DHT22;30784;48.490;9.688;2022-12-20T11:09:23;10.30;56.60
45044;DHT22;30784;48.490;9.688;2022-12-20T11:12:12;10.30;57.00
45044;DHT22;30784;48.490;9.688;2022-12-20T11:14:39;10.20;56.50
45044;DHT22;30784;48.490;9.688;2022-12-20T11:17:25;10.20;56.40
45044;DHT22;30784;48.490;9.688;2022-12-20T11:22:46;10.20;56.40
45044;DHT22;30784;48.490;9.688;2022-12-20T11:25:45;10.10;56.50
45044;DHT22;30784;48.490;9.688;2022-12-20T11:31:14;10.10;56.60
45044;DHT22;30784;48.490;9.688;2022-12-20T11:33:53;10.10;56.50
45044;DHT22;30784;48.490;9.688;2022-12-20T11:36:24;10.10;56.60
45044;DHT22;30784;48.490;9.688;2022-12-20T11:39:12;10.10;56.70
45044;DHT22;30784;48.490;9.688;2022-12-20T11:41:49;10.10;56.60
45044;DHT22;30784;48.490;9.688;2022-12-20T11:44:32;10.10;56.50
45044;DHT22;30784;48.490;9.688;2022-12-20T11:52:54;10.10;56.60
45044;DHT22;30784;48.490;9.688;2022-12-20T11:55:30;10.10;56.60
45044;DHT22;30784;48.490;9.688;2022-12-20T12:00:32;10.10;56.50
45044;DHT22;30784;48.490;9.688;2022-12-20T12:05:52;10.20;56.50
45044;DHT22;30784;48.490;9.688;2022-12-20T12:11:28;10.20;56.50
45044;DHT22;30784;48.490;9.688;2022-12-20T12:13:56;10.20;56.40
45044;DHT22;30784;48.490;9.688;2022-12-20T12:16:32;10.20;56.40
45044;DHT22;30784;48.490;9.688;2022-12-20T12:18:59;10.20;56.40
45044;DHT22;30784;48.490;9.688;2022-12-20T12:21:30;10.20;56.40
45044;DHT22;30784;48.490;9.688;2022-12-20T12:24:07;10.20;56.30
45044;DHT22;30784;48.490;9.688;2022-12-20T12:26:37;10.20;56.30
45044;DHT22;30784;48.490;9.688;2022-12-20T12:46:00;10.30;56.30
45044;DHT22;30784;48.490;9.688;2022-12-20T12:48:42;10.30;56.10
45044;DHT22;30784;48.490;9.688;2022-12-20T12:51:12;10.40;56.10
45044;DHT22;30784;48.490;9.688;2022-12-20T12:53:43;10.40;56.10
45044;DHT22;30784;48.490;9.688;2022-12-20T13:04:28;10.40;55.90
45044;DHT22;30784;48.490;9.688;2022-12-20T13:06:59;10.50;55.90
45044;DHT22;30784;48.490;9.688;2022-12-20T13:11:53;10.50;55.90
45044;DHT22;30784;48.490;9.688;2022-12-20T13:16:54;10.50;55.80
45044;DHT22;30784;48.490;9.688;2022-12-20T13:19:48;10.40;55.70
45044;DHT22;30784;48.490;9.688;2022-12-20T13:22:22;10.50;55.70
45044;DHT22;30784;48.490;9.688;2022-12-20T13:24:58;10.40;55.70
45044;DHT22;30784;48.490;9.688;2022-12-20T13:27:38;10.50;55.60
45044;DHT22;30784;48.490;9.688;2022-12-20T13:35:43;10.50;55.90
45044;DHT22;30784;48.490;9.688;2022-12-20T13:40:48;10.60;55.90
45044;DHT22;30784;48.490;9.688;2022-12-20T13:51:03;10.70;55.60
45044;DHT22;30784;48.490;9.688;2022-12-20T13:53:30;10.60;55.40
45044;DHT22;30784;48.490;9.688;2022-12-20T13:55:56;10.70;55.50
45044;DHT22;30784;48.490;9.688;2022-12-20T13:58:24;10.70;55.60
45044;DHT22;30784;48.490;9.688;2022-12-20T14:00:51;10.70;55.40
45044;DHT22;30784;48.490;9.688;2022-12-20T14:03:22;10.80;55.30
45044;DHT22;30784;48.490;9.688;2022-12-20T14:05:48;10.70;55.30
45044;DHT22;30784;48.490;9.688;2022-12-20T14:08:20;10.70;55.20
45044;DHT22;30784;48.490;9.688;2022-12-20T14:10:46;10.70;55.20
45044;DHT22;30784;48.490;9.688;2022-12-20T14:13:25;10.70;55.20
45044;DHT22;30784;48.490;9.688;2022-12-20T14:15:52;10.60;55.20
45044;DHT22;30784;48.490;9.688;2022-12-20T14:18:24;10.60;55.20
45044;DHT22;30784;48.490;9.688;2022-12-20T14:20:54;10.60;55.10
45044;DHT22;30784;48.490;9.688;2022-12-20T14:23:25;10.60;55.10
45044;DHT22;30784;48.490;9.688;2022-12-20T14:25:59;10.60;55.10
45044;DHT22;30784;48.490;9.688;2022-12-20T14:28:30;10.60;55.10
45044;DHT22;30784;48.490;9.688;2022-12-20T14:30:58;10.60;55.00
45044;DHT22;30784;48.490;9.688;2022-12-20T14:33:36;10.60;55.00
45044;DHT22;30784;48.490;9.688;2022-12-20T14:36:09;10.60;55.10
45044;DHT22;30784;48.490;9.688;2022-12-20T14:38:35;10.60;55.00
45044;DHT22;30784;48.490;9.688;2022-12-20T14:41:01;10.70;55.00
45044;DHT22;30784;48.490;9.688;2022-12-20T14:43:34;10.70;54.90
45044;DHT22;30784;48.490;9.688;2022-12-20T14:46:17;10.70;54.90
45044;DHT22;30784;48.490;9.688;2022-12-20T14:48:43;10.70;54.90
45044;DHT22;30784;48.490;9.688;2022-12-20T14:51:09;10.80;54.80
45044;DHT22;30784;48.490;9.688;2022-12-20T14:53:38;10.90;54.70
45044;DHT22;30784;48.490;9.688;2022-12-20T14:56:04;10.80;54.50
45044;DHT22;30784;48.490;9.688;2022-12-20T14:58:32;10.80;54.60
45044;DHT22;30784;48.490;9.688;2022-12-20T15:01:18;10.90;54.60
45044;DHT22;30784;48.490;9.688;2022-12-20T15:03:49;10.90;54.70
45044;DHT22;30784;48.490;9.688;2022-12-20T15:06:36;10.90;54.30
45044;DHT22;30784;48.490;9.688;2022-12-20T15:09:03;10.90;54.50
45044;DHT22;30784;48.490;9.688;2022-12-20T15:11:30;11.00;54.20
45044;DHT22;30784;48.490;9.688;2022-12-20T15:13:56;11.00;54.30
45044;DHT22;30784;48.490;9.688;2022-12-20T15:16:29;11.00;54.20
45044;DHT22;30784;48.490;9.688;2022-12-20T15:18:59;11.00;54.10
45044;DHT22;30784;48.490;9.688;2022-12-20T15:21:34;11.00;53.80
45044;DHT22;30784;48.490;9.688;2022-12-20T15:24:04;11.00;53.90
45044;DHT22;30784;48.490;9.688;2022-12-20T15:26:34;11.00;53.80
45044;DHT22;30784;48.490;9.688;2022-12-20T15:28:59;11.00;53.90
45044;DHT22;30784;48.490;9.688;2022-12-20T15:31:26;11.00;53.80
45044;DHT22;30784;48.490;9.688;2022-12-20T15:33:53;11.00;53.70
45044;DHT22;30784;48.490;9.688;2022-12-20T15:36:24;10.90;53.80
45044;DHT22;30784;48.490;9.688;2022-12-20T15:38:51;10.90;53.70
45044;DHT22;30784;48.490;9.688;2022-12-20T15:43:44;10.90;53.90
45044;DHT22;30784;48.490;9.688;2022-12-20T15:46:10;10.90;53.90
45044;DHT22;30784;48.490;9.688;2022-12-20T15:48:36;10.80;53.90
45044;DHT22;30784;48.490;9.688;2022-12-20T15:51:06;10.80;53.90
45044;DHT22;30784;48.490;9.688;2022-12-20T15:53:36;10.80;53.90
45044;DHT22;30784;48.490;9.688;2022-12-20T15:56:01;10.70;53.90
45044;DHT22;30784;48.490;9.688;2022-12-20T15:58:27;10.70;53.90
45044;DHT22;30784;48.490;9.688;2022-12-20T16:00:59;10.70;53.90
45044;DHT22;30784;48.490;9.688;2022-12-20T16:03:29;10.60;54.00
45044;DHT22;30784;48.490;9.688;2022-12-20T16:05:56;10.60;54.00
45044;DHT22;30784;48.490;9.688;2022-12-20T16:08:22;10.60;54.00
45044;DHT22;30784;48.490;9.688;2022-12-20T16:10:49;10.60;54.00
45044;DHT22;30784;48.490;9.688;2022-12-20T16:13:21;10.50;54.00
45044;DHT22;30784;48.490;9.688;2022-12-20T16:15:47;10.50;54.00
45044;DHT22;30784;48.490;9.688;2022-12-20T16:18:12;10.50;54.00
45044;DHT22;30784;48.490;9.688;2022-12-20T16:20:38;10.40;53.90
45044;DHT22;30784;48.490;9.688;2022-12-20T16:23:07;10.40;54.10
45044;DHT22;30784;48.490;9.688;2022-12-20T16:25:35;10.30;54.10
45044;DHT22;30784;48.490;9.688;2022-12-20T16:28:01;10.30;54.20
45044;DHT22;30784;48.490;9.688;2022-12-20T16:30:27;10.30;54.20
45044;DHT22;30784;48.490;9.688;2022-12-20T16:32:53;10.30;54.20
45044;DHT22;30784;48.490;9.688;2022-12-20T16:35:37;10.20;54.20
45044;DHT22;30784;48.490;9.688;2022-12-20T16:38:03;10.20;54.30
45044;DHT22;30784;48.490;9.688;2022-12-20T16:40:31;10.20;54.30
45044;DHT22;30784;48.490;9.688;2022-12-20T16:42:58;10.20;54.40
45044;DHT22;30784;48.490;9.688;2022-12-20T16:45:26;10.20;54.40
45044;DHT22;30784;48.490;9.688;2022-12-20T16:47:53;10.10;54.40
45044;DHT22;30784;48.490;9.688;2022-12-20T16:50:19;10.10;54.40
45044;DHT22;30784;48.490;9.688;2022-12-20T16:52:45;10.10;54.50
45044;DHT22;30784;48.490;9.688;2022-12-20T16:55:21;10.10;54.40
45044;DHT22;30784;48.490;9.688;2022-12-20T16:57:47;10.10;54.40
45044;DHT22;30784;48.490;9.688;2022-12-20T17:00:24;10.10;54.40
45044;DHT22;30784;48.490;9.688;2022-12-20T17:02:50;10.10;54.40
45044;DHT22;30784;48.490;9.688;2022-12-20T17:05:34;10.00;54.40
45044;DHT22;30784;48.490;9.688;2022-12-20T17:08:04;10.00;54.40
45044;DHT22;30784;48.490;9.688;2022-12-20T17:10:30;10.00;54.50
45044;DHT22;30784;48.490;9.688;2022-12-20T17:12:56;9.90;54.60
45044;DHT22;30784;48.490;9.688;2022-12-20T17:15:28;9.90;54.60
45044;DHT22;30784;48.490;9.688;2022-12-20T17:17:54;9.90;54.60
45044;DHT22;30784;48.490;9.688;2022-12-20T17:20:21;9.80;54.70
45044;DHT22;30784;48.490;9.688;2022-12-20T17:22:51;9.80;54.70
45044;DHT22;30784;48.490;9.688;2022-12-20T17:25:29;9.80;54.80
45044;DHT22;30784;48.490;9.688;2022-12-20T17:27:54;9.70;54.80